Back to Top

Language: 

My Weather Underground Personal Weather Station Historical Data with Graphs...

Delerius Weather Station Historical Data
Daily Summary for March 16, 2017 Units:  English    Metric   Both
« Previous Day
Next Day »
Daily Weekly Monthly Yearly Custom
  High: Low: Average:
Temperature: 55.2 °F 39.7 °F 48.5 °F
Dew Point: 46.0 °F 35.6 °F 42.5 °F
Humidity: 92 % 68 % 80 %
Wind Speed: 16.0 mph 0.0 mph 6.4 mph
Wind Gust: 29.0 mph - -
Wind:- - West
Pressure: 30.29 in 29.98 in -
Precipitation: 0.00 in    
Historical Graphs
 
 
Tabular Data for March 16, 2017
Time Temperature Dew Point Pressure Wind Wind Speed Wind Gust Humidity Rainfall Rate (Hourly) solar Conditions
00:04 49.1 °F 43.5 °F 30.29 in South 1.0 mph 6.0 mph 81 % 0.00 in 0 W/m2
00:09 49.1 °F 43.8 °F 30.29 in SSW 1.0 mph 6.0 mph 82 % 0.00 in 0 W/m2
00:14 48.7 °F 43.5 °F 30.29 in SSW 1.0 mph 7.0 mph 82 % 0.00 in 0 W/m2
00:19 48.7 °F 43.8 °F 30.29 in SW 3.0 mph 9.0 mph 83 % 0.00 in 0 W/m2
00:24 49.1 °F 44.2 °F 30.28 in SW 5.0 mph 11.0 mph 83 % 0.00 in 0 W/m2
00:29 49.6 °F 44.4 °F 30.28 in WSW 6.0 mph 12.0 mph 82 % 0.00 in 0 W/m2
00:34 50.2 °F 44.6 °F 30.28 in WSW 7.0 mph 12.0 mph 81 % 0.00 in 0 W/m2
00:39 50.4 °F 44.7 °F 30.28 in WSW 6.0 mph 11.0 mph 81 % 0.00 in 0 W/m2
00:44 50.4 °F 44.4 °F 30.28 in WSW 5.0 mph 9.0 mph 80 % 0.00 in 0 W/m2
00:49 50.2 °F 44.2 °F 30.28 in WSW 4.0 mph 8.0 mph 80 % 0.00 in 0 W/m2
00:54 49.8 °F 43.9 °F 30.27 in WSW 4.0 mph 8.0 mph 80 % 0.00 in 0 W/m2
00:59 49.6 °F 44.0 °F 30.27 in WSW 3.0 mph 8.0 mph 81 % 0.00 in 0 W/m2
01:04 49.5 °F 43.9 °F 30.27 in WSW 2.0 mph 8.0 mph 81 % 0.00 in 0 W/m2
01:09 49.3 °F 43.7 °F 30.27 in WSW 1.0 mph 5.0 mph 81 % 0.00 in 0 W/m2
01:14 48.7 °F 43.2 °F 30.27 in West 2.0 mph 6.0 mph 81 % 0.00 in 0 W/m2
01:19 48.6 °F 43.3 °F 30.27 in West 3.0 mph 6.0 mph 82 % 0.00 in 0 W/m2
01:24 48.4 °F 43.1 °F 30.26 in West 1.0 mph 5.0 mph 82 % 0.00 in 0 W/m2
01:29 48.0 °F 42.8 °F 30.26 in Calm   4.0 mph 82 % 0.00 in 0 W/m2
01:34 47.8 °F 42.6 °F 30.26 in Calm   4.0 mph 82 % 0.00 in 0 W/m2
01:39 47.8 °F 42.9 °F 30.26 in Calm   5.0 mph 83 % 0.00 in 0 W/m2
01:44 47.8 °F 42.9 °F 30.26 in Calm   5.0 mph 83 % 0.00 in 0 W/m2
01:49 47.7 °F 42.8 °F 30.26 in Calm   2.0 mph 83 % 0.00 in 0 W/m2
01:54 47.7 °F 42.8 °F 30.25 in Calm   2.0 mph 83 % 0.00 in 0 W/m2
01:59 47.7 °F 42.8 °F 30.25 in West 1.0 mph 5.0 mph 83 % 0.00 in 0 W/m2
02:04 47.8 °F 42.9 °F 30.25 in West 1.0 mph 5.0 mph 83 % 0.00 in 0 W/m2
02:09 47.8 °F 42.9 °F 30.25 in Calm   2.0 mph 83 % 0.00 in 0 W/m2
02:14 47.8 °F 42.9 °F 30.24 in Calm   2.0 mph 83 % 0.00 in 0 W/m2
02:19 47.8 °F 42.9 °F 30.24 in West 1.0 mph 4.0 mph 83 % 0.00 in 0 W/m2
02:24 47.8 °F 42.9 °F 30.24 in West 1.0 mph 4.0 mph 83 % 0.00 in 0 W/m2
02:29 47.8 °F 42.9 °F 30.24 in West 2.0 mph 6.0 mph 83 % 0.00 in 0 W/m2
02:34 48.0 °F 43.1 °F 30.23 in WNW 4.0 mph 6.0 mph 83 % 0.00 in 0 W/m2
02:39 48.4 °F 43.5 °F 30.23 in NW 3.0 mph 6.0 mph 83 % 0.00 in 0 W/m2
02:44 48.4 °F 43.1 °F 30.23 in NW 3.0 mph 6.0 mph 82 % 0.00 in 0 W/m2
02:49 48.4 °F 42.8 °F 30.23 in NW 3.0 mph 7.0 mph 81 % 0.00 in 0 W/m2
02:54 48.0 °F 42.5 °F 30.23 in WNW 2.0 mph 7.0 mph 81 % 0.00 in 0 W/m2
02:59 48.0 °F 42.5 °F 30.22 in WNW 1.0 mph 6.0 mph 81 % 0.00 in 0 W/m2
03:04 47.7 °F 42.4 °F 30.22 in Calm   2.0 mph 82 % 0.00 in 0 W/m2
03:09 47.5 °F 42.3 °F 30.22 in Calm   2.0 mph 82 % 0.00 in 0 W/m2
03:14 47.1 °F 41.9 °F 30.22 in Calm   1.0 mph 82 % 0.00 in 0 W/m2
03:19 46.8 °F 41.9 °F 30.22 in Calm   2.0 mph 83 % 0.00 in 0 W/m2
03:24 46.6 °F 41.7 °F 30.22 in Calm   2.0 mph 83 % 0.00 in 0 W/m2
03:30 46.2 °F 42.0 °F 30.22 in WNW 1.0 mph 5.0 mph 85 % 0.00 in 0 W/m2
03:35 46.4 °F 42.1 °F 30.21 in WNW 2.0 mph 5.0 mph 85 % 0.00 in 0 W/m2
03:40 46.4 °F 42.1 °F 30.21 in WNW 1.0 mph 5.0 mph 85 % 0.00 in 0 W/m2
03:45 46.2 °F 42.0 °F 30.21 in WNW 1.0 mph 4.0 mph 85 % 0.00 in 0 W/m2
03:50 46.2 °F 42.0 °F 30.21 in WNW 1.0 mph 4.0 mph 85 % 0.00 in 0 W/m2
03:55 46.0 °F 41.8 °F 30.21 in WNW 1.0 mph 4.0 mph 85 % 0.00 in 0 W/m2
04:00 45.9 °F 41.9 °F 30.20 in Calm   3.0 mph 86 % 0.00 in 0 W/m2
04:05 45.7 °F 41.4 °F 30.20 in Calm   2.0 mph 85 % 0.00 in 0 W/m2
04:10 45.5 °F 41.6 °F 30.20 in Calm   3.0 mph 86 % 0.00 in 0 W/m2
04:15 45.5 °F 41.6 °F 30.20 in Calm   3.0 mph 86 % 0.00 in 0 W/m2
04:20 45.3 °F 41.4 °F 30.19 in Calm   1.0 mph 86 % 0.00 in 0 W/m2
04:25 45.1 °F 41.5 °F 30.19 in Calm   1.0 mph 87 % 0.00 in 0 W/m2
04:30 45.1 °F 41.5 °F 30.19 in Calm   4.0 mph 87 % 0.00 in 0 W/m2
04:35 45.1 °F 41.5 °F 30.19 in NW 2.0 mph 5.0 mph 87 % 0.00 in 0 W/m2
04:40 45.3 °F 41.7 °F 30.19 in NW 3.0 mph 5.0 mph 87 % 0.00 in 0 W/m2
04:45 45.3 °F 41.7 °F 30.19 in NW 3.0 mph 5.0 mph 87 % 0.00 in 0 W/m2
04:50 45.3 °F 41.7 °F 30.19 in NW 2.0 mph 5.0 mph 87 % 0.00 in 0 W/m2
04:55 45.1 °F 41.5 °F 30.19 in NW 1.0 mph 4.0 mph 87 % 0.00 in 0 W/m2
05:00 45.1 °F 41.5 °F 30.19 in Calm   3.0 mph 87 % 0.00 in 0 W/m2
05:05 45.0 °F 41.3 °F 30.19 in Calm   3.0 mph 87 % 0.00 in 0 W/m2
05:10 44.8 °F 41.4 °F 30.19 in Calm   3.0 mph 88 % 0.00 in 0 W/m2
05:15 44.4 °F 40.8 °F 30.18 in Calm   3.0 mph 87 % 0.00 in 0 W/m2
05:20 44.1 °F 40.4 °F 30.18 in Calm   1.0 mph 87 % 0.00 in 0 W/m2
05:25 43.9 °F 40.3 °F 30.18 in Calm   1.0 mph 87 % 0.00 in 0 W/m2
05:30 43.5 °F 40.2 °F 30.18 in Calm   1.0 mph 88 % 0.00 in 0 W/m2
05:35 43.3 °F 40.0 °F 30.17 in Calm   1.0 mph 88 % 0.00 in 0 W/m2
05:40 43.2 °F 40.1 °F 30.17 in Calm     89 % 0.00 in 0 W/m2
05:45 43.0 °F 40.0 °F 30.17 in Calm     89 % 0.00 in 0 W/m2
05:50 42.6 °F 39.6 °F 30.17 in Calm   3.0 mph 89 % 0.00 in 0 W/m2
05:55 42.4 °F 39.7 °F 30.17 in Calm   3.0 mph 90 % 0.00 in 0 W/m2
06:00 42.4 °F 39.7 °F 30.17 in Calm   2.0 mph 90 % 0.00 in 0 W/m2
06:05 42.4 °F 39.7 °F 30.16 in Calm   2.0 mph 90 % 0.00 in 0 W/m2
06:10 42.3 °F 39.5 °F 30.16 in Calm     90 % 0.00 in 0 W/m2
06:15 42.1 °F 39.4 °F 30.16 in Calm     90 % 0.00 in 0 W/m2
06:20 42.1 °F 39.6 °F 30.15 in NW 1.0 mph 2.0 mph 91 % 0.00 in 5 W/m2
06:25 42.3 °F 40.1 °F 30.15 in NW 1.0 mph 5.0 mph 92 % 0.00 in 7 W/m2
06:30 42.3 °F 40.1 °F 30.16 in NW 2.0 mph 5.0 mph 92 % 0.00 in 9 W/m2
06:35 42.3 °F 39.8 °F 30.16 in NW 1.0 mph 5.0 mph 91 % 0.00 in 11 W/m2
06:40 42.3 °F 39.8 °F 30.16 in Calm   1.0 mph 91 % 0.00 in 14 W/m2
06:45 42.1 °F 39.6 °F 30.15 in Calm   1.0 mph 91 % 0.00 in 14 W/m2
06:50 41.7 °F 39.3 °F 30.15 in Calm     91 % 0.00 in 18 W/m2
06:55 41.5 °F 39.1 °F 30.15 in Calm   1.0 mph 91 % 0.00 in 19 W/m2
07:00 41.5 °F 39.1 °F 30.16 in NW 1.0 mph 4.0 mph 91 % 0.00 in 60 W/m2
07:05 41.7 °F 39.6 °F 30.16 in NW 1.0 mph 4.0 mph 92 % 0.00 in 90 W/m2
07:10 42.1 °F 39.9 °F 30.15 in Calm   4.0 mph 92 % 0.00 in 98 W/m2
07:15 42.4 °F 40.3 °F 30.16 in Calm     92 % 0.00 in 114 W/m2
07:20 42.8 °F 40.6 °F 30.15 in Calm     92 % 0.00 in 121 W/m2
07:25 43.2 °F 41.0 °F 30.15 in Calm     92 % 0.00 in 90 W/m2
07:30 43.5 °F 41.1 °F 30.15 in Calm     91 % 0.00 in 95 W/m2
07:35 43.9 °F 41.4 °F 30.15 in Calm     91 % 0.00 in 162 W/m2
07:40 44.4 °F 41.7 °F 30.15 in WNW 1.0 mph 6.0 mph 90 % 0.00 in 181 W/m2
07:45 45.1 °F 42.4 °F 30.15 in WNW 2.0 mph 6.0 mph 90 % 0.00 in 183 W/m2
07:50 46.0 °F 43.3 °F 30.15 in WNW 2.0 mph 9.0 mph 90 % 0.00 in 206 W/m2
07:55 47.1 °F 43.7 °F 30.15 in NW 4.0 mph 9.0 mph 88 % 0.00 in 225 W/m2
08:00 47.8 °F 43.5 °F 30.15 in NW 6.0 mph 11.0 mph 85 % 0.00 in 227 W/m2
08:05 48.6 °F 43.9 °F 30.15 in NW 6.0 mph 11.0 mph 84 % 0.00 in 221 W/m2
08:10 48.9 °F 44.0 °F 30.15 in NW 5.0 mph 8.0 mph 83 % 0.00 in 239 W/m2
08:15 49.5 °F 44.2 °F 30.14 in NW 3.0 mph 9.0 mph 82 % 0.00 in 174 W/m2
08:20 49.5 °F 43.5 °F 30.14 in WNW 5.0 mph 12.0 mph 80 % 0.00 in 127 W/m2
08:25 49.5 °F 43.9 °F 30.14 in WNW 7.0 mph 13.0 mph 81 % 0.00 in 236 W/m2
08:31 49.6 °F 44.0 °F 30.14 in WNW 8.0 mph 13.0 mph 81 % 0.00 in 309 W/m2
08:36 50.0 °F 44.4 °F 30.14 in WNW 8.0 mph 13.0 mph 81 % 0.00 in 315 W/m2
08:41 50.2 °F 44.2 °F 30.14 in WNW 9.0 mph 15.0 mph 80 % 0.00 in 120 W/m2
08:46 50.0 °F 44.1 °F 30.14 in WNW 9.0 mph 16.0 mph 80 % 0.00 in 302 W/m2
08:51 49.8 °F 43.9 °F 30.14 in WNW 9.0 mph 16.0 mph 80 % 0.00 in 308 W/m2
08:56 49.8 °F 43.9 °F 30.13 in WNW 8.0 mph 14.0 mph 80 % 0.00 in 114 W/m2
09:01 49.6 °F 44.0 °F 30.13 in West 6.0 mph 13.0 mph 81 % 0.00 in 134 W/m2
09:06 50.0 °F 44.4 °F 30.13 in WNW 5.0 mph 10.0 mph 81 % 0.00 in 413 W/m2
09:11 50.4 °F 44.4 °F 30.13 in WNW 6.0 mph 10.0 mph 80 % 0.00 in 318 W/m2
09:16 50.7 °F 44.8 °F 30.12 in WNW 6.0 mph 10.0 mph 80 % 0.00 in 427 W/m2
09:21 51.1 °F 44.8 °F 30.12 in WNW 4.0 mph 9.0 mph 79 % 0.00 in 459 W/m2
09:26 51.6 °F 44.6 °F 30.12 in West 3.0 mph 8.0 mph 77 % 0.00 in 459 W/m2
09:31 51.6 °F 44.0 °F 30.12 in WSW 5.0 mph 11.0 mph 75 % 0.00 in 418 W/m2
09:36 51.6 °F 44.0 °F 30.12 in SW 8.0 mph 14.0 mph 75 % 0.00 in 431 W/m2
09:41 51.6 °F 44.0 °F 30.12 in WSW 8.0 mph 14.0 mph 75 % 0.00 in 455 W/m2
09:46 52.2 °F 44.5 °F 30.11 in West 7.0 mph 11.0 mph 75 % 0.00 in 468 W/m2
09:51 52.5 °F 44.5 °F 30.11 in West 7.0 mph 11.0 mph 74 % 0.00 in 494 W/m2
09:56 52.7 °F 44.6 °F 30.11 in West 6.0 mph 11.0 mph 74 % 0.00 in 508 W/m2
10:01 52.9 °F 44.8 °F 30.11 in WSW 6.0 mph 16.0 mph 74 % 0.00 in 489 W/m2
10:06 52.9 °F 44.5 °F 30.10 in West 8.0 mph 16.0 mph 73 % 0.00 in 513 W/m2
10:11 53.1 °F 44.6 °F 30.11 in West 9.0 mph 16.0 mph 73 % 0.00 in 529 W/m2
10:16 53.6 °F 44.8 °F 30.10 in WNW 8.0 mph 13.0 mph 72 % 0.00 in 427 W/m2
10:21 54.1 °F 45.3 °F 30.10 in WNW 7.0 mph 13.0 mph 72 % 0.00 in 526 W/m2
10:26 54.7 °F 45.1 °F 30.11 in WNW 7.0 mph 15.0 mph 70 % 0.00 in 524 W/m2
10:31 54.9 °F 45.3 °F 30.10 in West 8.0 mph 15.0 mph 70 % 0.00 in 584 W/m2
10:36 55.0 °F 45.4 °F 30.10 in West 8.0 mph 14.0 mph 70 % 0.00 in 612 W/m2
10:41 54.9 °F 44.5 °F 30.10 in WSW 9.0 mph 16.0 mph 68 % 0.00 in 624 W/m2
10:46 54.7 °F 45.1 °F 30.10 in WSW 11.0 mph 16.0 mph 70 % 0.00 in 666 W/m2
10:51 54.7 °F 44.7 °F 30.10 in WSW 13.0 mph 23.0 mph 69 % 0.00 in 800 W/m2
10:56 54.7 °F 44.7 °F 30.10 in West 14.0 mph 23.0 mph 69 % 0.00 in 751 W/m2
11:01 55.0 °F 45.1 °F 30.09 in West 12.0 mph 22.0 mph 69 % 0.00 in 429 W/m2
11:06 55.2 °F 44.8 °F 30.10 in West 11.0 mph 19.0 mph 68 % 0.00 in 429 W/m2
11:11 55.0 °F 44.7 °F 30.09 in WSW 12.0 mph 22.0 mph 68 % 0.00 in 824 W/m2
11:16 54.9 °F 44.5 °F 30.09 in WSW 12.0 mph 22.0 mph 68 % 0.00 in 366 W/m2
11:21 54.7 °F 44.3 °F 30.09 in WSW 11.0 mph 20.0 mph 68 % 0.00 in 290 W/m2
11:26 54.3 °F 44.4 °F 30.09 in WSW 10.0 mph 19.0 mph 69 % 0.00 in 163 W/m2
11:31 54.3 °F 44.4 °F 30.09 in WSW 9.0 mph 18.0 mph 69 % 0.00 in 165 W/m2
11:36 54.0 °F 44.4 °F 30.09 in West 10.0 mph 22.0 mph 70 % 0.00 in 183 W/m2
11:41 53.8 °F 44.2 °F 30.08 in West 9.0 mph 22.0 mph 70 % 0.00 in 165 W/m2
11:46 53.4 °F 43.9 °F 30.08 in West 9.0 mph 18.0 mph 70 % 0.00 in 162 W/m2
11:51 53.4 °F 43.9 °F 30.07 in West 10.0 mph 21.0 mph 70 % 0.00 in 158 W/m2
11:56 53.4 °F 43.9 °F 30.07 in West 10.0 mph 21.0 mph 70 % 0.00 in 206 W/m2
12:01 53.6 °F 44.4 °F 30.07 in West 11.0 mph 19.0 mph 71 % 0.00 in 223 W/m2
12:06 53.8 °F 44.6 °F 30.07 in West 11.0 mph 19.0 mph 71 % 0.00 in 274 W/m2
12:07 53.8 °F 44.6 °F 30.07 in West 11.0 mph 19.0 mph 71 % 0.00 in 221 W/m2
12:12 53.8 °F 44.2 °F 30.07 in West 10.0 mph 18.0 mph 70 % 0.00 in 213 W/m2
12:17 54.0 °F 44.4 °F 30.07 in West 12.0 mph 26.0 mph 70 % 0.00 in 190 W/m2
12:22 53.6 °F 44.0 °F 30.07 in West 14.0 mph 26.0 mph 70 % 0.00 in 176 W/m2
12:27 53.4 °F 44.2 °F 30.07 in West 13.0 mph 21.0 mph 71 % 0.00 in 158 W/m2
12:32 53.4 °F 44.2 °F 30.07 in West 13.0 mph 24.0 mph 71 % 0.00 in 160 W/m2
12:37 53.4 °F 43.9 °F 30.06 in West 13.0 mph 24.0 mph 70 % 0.00 in 237 W/m2
12:42 53.4 °F 44.2 °F 30.06 in West 12.0 mph 23.0 mph 71 % 0.00 in 188 W/m2
12:47 53.4 °F 44.2 °F 30.06 in WSW 11.0 mph 21.0 mph 71 % 0.00 in 149 W/m2
12:52 53.2 °F 44.4 °F 30.06 in West 11.0 mph 21.0 mph 72 % 0.00 in 116 W/m2
12:57 53.2 °F 44.4 °F 30.06 in WSW 13.0 mph 24.0 mph 72 % 0.00 in 111 W/m2
13:02 52.9 °F 44.5 °F 30.05 in WSW 13.0 mph 24.0 mph 73 % 0.00 in 91 W/m2
13:07 52.9 °F 44.8 °F 30.04 in West 11.0 mph 20.0 mph 74 % 0.00 in 104 W/m2
13:12 52.9 °F 45.2 °F 30.04 in WSW 11.0 mph 20.0 mph 75 % 0.00 in 332 W/m2
13:17 53.1 °F 45.3 °F 30.04 in SW 10.0 mph 19.0 mph 75 % 0.00 in 322 W/m2
13:22 53.6 °F 45.5 °F 30.04 in WSW 10.0 mph 21.0 mph 74 % 0.00 in 202 W/m2
13:27 53.8 °F 45.3 °F 30.04 in WSW 12.0 mph 21.0 mph 73 % 0.00 in 162 W/m2
13:32 54.0 °F 45.5 °F 30.04 in WSW 11.0 mph 21.0 mph 73 % 0.00 in 153 W/m2
13:37 54.0 °F 45.5 °F 30.03 in WSW 10.0 mph 23.0 mph 73 % 0.00 in 148 W/m2
13:42 53.8 °F 45.3 °F 30.03 in WSW 11.0 mph 23.0 mph 73 % 0.00 in 118 W/m2
13:47 53.6 °F 45.5 °F 30.03 in West 11.0 mph 19.0 mph 74 % 0.00 in 146 W/m2
13:52 53.2 °F 45.5 °F 30.03 in West 11.0 mph 21.0 mph 75 % 0.00 in 223 W/m2
13:57 53.4 °F 45.7 °F 30.03 in West 12.0 mph 21.0 mph 75 % 0.00 in 751 W/m2
14:02 53.8 °F 45.7 °F 30.03 in West 12.0 mph 20.0 mph 74 % 0.00 in 626 W/m2
14:07 54.1 °F 46.0 °F 30.02 in West 11.0 mph 20.0 mph 74 % 0.00 in 552 W/m2
14:12 54.3 °F 45.8 °F 30.02 in West 11.0 mph 21.0 mph 73 % 0.00 in 545 W/m2
14:17 54.9 °F 46.0 °F 30.02 in West 12.0 mph 21.0 mph 72 % 0.00 in 548 W/m2
14:22 54.9 °F 46.0 °F 30.02 in West 13.0 mph 20.0 mph 72 % 0.00 in 527 W/m2
14:27 55.0 °F 45.8 °F 30.02 in WSW 13.0 mph 20.0 mph 71 % 0.00 in 557 W/m2
14:32 55.0 °F 45.8 °F 30.01 in WSW 12.0 mph 20.0 mph 71 % 0.00 in 185 W/m2
14:37 55.0 °F 45.4 °F 30.01 in WSW 12.0 mph 19.0 mph 70 % 0.00 in 380 W/m2
14:42 54.9 °F 45.3 °F 30.01 in WSW 12.0 mph 21.0 mph 70 % 0.00 in 220 W/m2
14:47 55.0 °F 45.8 °F 30.01 in West 11.0 mph 21.0 mph 71 % 0.00 in 137 W/m2
14:52 55.0 °F 45.1 °F 30.01 in West 13.0 mph 24.0 mph 69 % 0.00 in 192 W/m2
14:57 54.7 °F 45.1 °F 30.01 in West 13.0 mph 24.0 mph 70 % 0.00 in 192 W/m2
15:02 54.7 °F 45.1 °F 30.01 in WSW 12.0 mph 21.0 mph 70 % 0.00 in 109 W/m2
15:07 54.3 °F 44.7 °F 30.01 in WSW 13.0 mph 20.0 mph 70 % 0.00 in 123 W/m2
15:12 54.1 °F 44.9 °F 30.01 in WSW 11.0 mph 20.0 mph 71 % 0.00 in 100 W/m2
15:17 54.1 °F 44.9 °F 30.01 in West 8.0 mph 18.0 mph 71 % 0.00 in 102 W/m2
15:22 54.1 °F 44.6 °F 30.00 in WSW 9.0 mph 19.0 mph 70 % 0.00 in 104 W/m2
15:27 54.1 °F 44.6 °F 30.00 in WSW 11.0 mph 19.0 mph 70 % 0.00 in 97 W/m2
15:32 54.1 °F 44.2 °F 30.00 in WSW 11.0 mph 20.0 mph 69 % 0.00 in 74 W/m2
15:37 54.1 °F 44.2 °F 30.00 in WSW 10.0 mph 20.0 mph 69 % 0.00 in 51 W/m2
15:42 54.0 °F 44.4 °F 30.00 in WSW 10.0 mph 18.0 mph 70 % 0.00 in 54 W/m2
15:47 53.8 °F 44.2 °F 30.00 in WSW 9.0 mph 14.0 mph 70 % 0.00 in 58 W/m2
15:52 53.8 °F 44.2 °F 30.00 in WSW 9.0 mph 15.0 mph 70 % 0.00 in 56 W/m2
15:58 53.8 °F 44.6 °F 30.00 in WSW 9.0 mph 15.0 mph 71 % 0.00 in 46 W/m2
16:03 53.4 °F 44.2 °F 30.00 in WSW 9.0 mph 15.0 mph 71 % 0.00 in 39 W/m2
16:08 53.4 °F 44.2 °F 30.00 in WSW 10.0 mph 15.0 mph 71 % 0.00 in 51 W/m2
16:13 53.4 °F 44.6 °F 30.00 in WSW 9.0 mph 15.0 mph 72 % 0.00 in 76 W/m2
16:18 53.4 °F 44.6 °F 29.99 in WSW 7.0 mph 13.0 mph 72 % 0.00 in 47 W/m2
16:23 53.4 °F 44.6 °F 29.99 in WSW 7.0 mph 13.0 mph 72 % 0.00 in 76 W/m2
16:28 53.4 °F 44.2 °F 29.98 in WSW 9.0 mph 18.0 mph 71 % 0.00 in 223 W/m2
16:33 53.8 °F 44.6 °F 29.98 in WSW 10.0 mph 18.0 mph 71 % 0.00 in 225 W/m2
16:38 53.8 °F 44.2 °F 29.98 in WSW 11.0 mph 24.0 mph 70 % 0.00 in 62 W/m2
16:43 54.0 °F 44.4 °F 29.98 in WSW 11.0 mph 24.0 mph 70 % 0.00 in 44 W/m2
16:48 54.0 °F 44.4 °F 29.98 in West 11.0 mph 21.0 mph 70 % 0.00 in 151 W/m2
16:53 53.8 °F 44.2 °F 29.98 in West 12.0 mph 21.0 mph 70 % 0.00 in 97 W/m2
16:58 53.6 °F 44.0 °F 29.98 in WSW 11.0 mph 20.0 mph 70 % 0.00 in 33 W/m2
17:03 53.2 °F 43.7 °F 29.98 in WSW 11.0 mph 19.0 mph 70 % 0.00 in 28 W/m2
17:08 53.2 °F 44.1 °F 29.98 in WSW 10.0 mph 19.0 mph 71 % 0.00 in 39 W/m2
17:13 53.1 °F 44.3 °F 29.98 in West 10.0 mph 21.0 mph 72 % 0.00 in 26 W/m2
17:18 53.1 °F 44.3 °F 29.98 in West 10.0 mph 21.0 mph 72 % 0.00 in 21 W/m2
17:23 53.1 °F 44.3 °F 29.98 in WSW 9.0 mph 20.0 mph 72 % 0.00 in 25 W/m2
17:28 53.1 °F 44.6 °F 29.98 in WSW 9.0 mph 16.0 mph 73 % 0.00 in 23 W/m2
17:33 53.1 °F 44.6 °F 29.98 in WSW 10.0 mph 19.0 mph 73 % 0.00 in 19 W/m2
17:38 53.1 °F 44.6 °F 29.98 in WSW 12.0 mph 19.0 mph 73 % 0.00 in 19 W/m2
17:43 52.9 °F 44.5 °F 29.98 in WSW 13.0 mph 22.0 mph 73 % 0.00 in 12 W/m2
17:48 52.5 °F 44.5 °F 29.99 in WSW 16.0 mph 26.0 mph 74 % 0.00 in 11 W/m2
17:53 52.2 °F 44.5 °F 29.99 in WSW 15.0 mph 26.0 mph 75 % 0.00 in 9 W/m2
17:58 52.0 °F 44.6 °F 29.99 in West 12.0 mph 23.0 mph 76 % 0.00 in 5 W/m2
18:03 51.6 °F 44.6 °F 29.99 in West 11.0 mph 20.0 mph 77 % 0.00 in 0 W/m2
18:08 51.4 °F 44.5 °F 29.99 in West 12.0 mph 23.0 mph 77 % 0.00 in 0 W/m2
18:13 51.3 °F 44.3 °F 29.99 in West 12.0 mph 23.0 mph 77 % 0.00 in 0 W/m2
18:18 51.1 °F 44.5 °F 29.99 in West 11.0 mph 21.0 mph 78 % 0.00 in 0 W/m2
18:23 50.9 °F 44.6 °F 30.00 in West 12.0 mph 22.0 mph 79 % 0.00 in 0 W/m2
18:28 50.7 °F 44.8 °F 30.00 in West 15.0 mph 26.0 mph 80 % 0.00 in 0 W/m2
18:33 50.5 °F 44.9 °F 29.99 in West 14.0 mph 26.0 mph 81 % 0.00 in 0 W/m2
18:38 50.4 °F 44.7 °F 30.00 in West 12.0 mph 22.0 mph 81 % 0.00 in 0 W/m2
18:43 50.0 °F 45.0 °F 30.01 in West 14.0 mph 28.0 mph 83 % 0.00 in 0 W/m2
18:48 48.4 °F 43.1 °F 30.01 in WNW 15.0 mph 29.0 mph 82 % 0.00 in 0 W/m2
18:53 47.1 °F 42.5 °F 30.02 in WNW 13.0 mph 29.0 mph 84 % 0.00 in 0 W/m2
18:58 46.2 °F 42.0 °F 30.02 in WNW 14.0 mph 26.0 mph 85 % 0.00 in 0 W/m2
19:03 45.7 °F 41.4 °F 30.02 in WNW 14.0 mph 26.0 mph 85 % 0.00 in 0 W/m2
19:08 45.3 °F 41.4 °F 30.02 in WNW 12.0 mph 21.0 mph 86 % 0.00 in 0 W/m2
19:14 45.1 °F 41.2 °F 30.02 in WNW 11.0 mph 19.0 mph 86 % 0.00 in 0 W/m2
19:19 45.1 °F 41.2 °F 30.02 in WNW 10.0 mph 19.0 mph 86 % 0.00 in 0 W/m2
19:24 45.0 °F 41.0 °F 30.02 in WNW 11.0 mph 19.0 mph 86 % 0.00 in 0 W/m2
19:29 45.0 °F 40.7 °F 30.02 in WNW 12.0 mph 22.0 mph 85 % 0.00 in 0 W/m2
19:34 44.8 °F 40.5 °F 30.02 in WNW 11.0 mph 22.0 mph 85 % 0.00 in 0 W/m2
19:39 44.6 °F 40.1 °F 30.02 in WNW 10.0 mph 19.0 mph 84 % 0.00 in 0 W/m2
19:44 44.4 °F 39.9 °F 30.02 in WNW 9.0 mph 16.0 mph 84 % 0.00 in 0 W/m2
19:49 44.2 °F 39.7 °F 30.02 in WNW 8.0 mph 14.0 mph 84 % 0.00 in 0 W/m2
19:54 44.2 °F 39.7 °F 30.03 in WNW 8.0 mph 14.0 mph 84 % 0.00 in 0 W/m2
19:59 44.2 °F 39.7 °F 30.03 in WNW 8.0 mph 15.0 mph 84 % 0.00 in 0 W/m2
20:04 44.2 °F 39.4 °F 30.03 in NW 8.0 mph 15.0 mph 83 % 0.00 in 0 W/m2
20:09 44.2 °F 39.7 °F 30.03 in NW 7.0 mph 15.0 mph 84 % 0.00 in 0 W/m2
20:14 44.2 °F 39.7 °F 30.03 in NW 6.0 mph 12.0 mph 84 % 0.00 in 0 W/m2
20:19 44.2 °F 39.7 °F 30.04 in NW 5.0 mph 11.0 mph 84 % 0.00 in 0 W/m2
20:24 44.2 °F 39.7 °F 30.04 in NW 5.0 mph 11.0 mph 84 % 0.00 in 0 W/m2
20:29 44.2 °F 39.7 °F 30.04 in NW 5.0 mph 8.0 mph 84 % 0.00 in 0 W/m2
20:34 44.2 °F 40.0 °F 30.04 in NW 5.0 mph 9.0 mph 85 % 0.00 in 0 W/m2
20:39 44.4 °F 40.2 °F 30.04 in NW 4.0 mph 9.0 mph 85 % 0.00 in 0 W/m2
20:44 44.2 °F 40.0 °F 30.04 in WNW 4.0 mph 8.0 mph 85 % 0.00 in 0 W/m2
20:49 44.2 °F 40.0 °F 30.04 in WNW 5.0 mph 8.0 mph 85 % 0.00 in 0 W/m2
20:54 44.2 °F 40.0 °F 30.04 in WNW 6.0 mph 10.0 mph 85 % 0.00 in 0 W/m2
20:59 44.2 °F 40.0 °F 30.04 in WNW 6.0 mph 10.0 mph 85 % 0.00 in 0 W/m2
21:04 44.4 °F 40.2 °F 30.04 in WNW 7.0 mph 12.0 mph 85 % 0.00 in 0 W/m2
21:09 44.4 °F 40.5 °F 30.04 in WNW 9.0 mph 16.0 mph 86 % 0.00 in 0 W/m2
21:14 44.2 °F 40.3 °F 30.05 in WNW 9.0 mph 16.0 mph 86 % 0.00 in 0 W/m2
21:19 44.1 °F 39.8 °F 30.05 in WNW 9.0 mph 18.0 mph 85 % 0.00 in 0 W/m2
21:24 43.9 °F 39.7 °F 30.05 in WNW 8.0 mph 18.0 mph 85 % 0.00 in 0 W/m2
21:29 43.7 °F 39.2 °F 30.05 in WNW 8.0 mph 15.0 mph 84 % 0.00 in 0 W/m2
21:34 43.5 °F 39.3 °F 30.05 in WNW 7.0 mph 14.0 mph 85 % 0.00 in 0 W/m2
21:39 43.3 °F 39.1 °F 30.05 in WNW 5.0 mph 11.0 mph 85 % 0.00 in 0 W/m2
21:44 43.3 °F 39.1 °F 30.06 in WNW 6.0 mph 11.0 mph 85 % 0.00 in 0 W/m2
21:49 43.3 °F 39.1 °F 30.06 in WNW 6.0 mph 11.0 mph 85 % 0.00 in 0 W/m2
21:54 43.2 °F 39.3 °F 30.06 in WNW 5.0 mph 10.0 mph 86 % 0.00 in 0 W/m2
21:59 43.0 °F 38.8 °F 30.06 in WNW 4.0 mph 11.0 mph 85 % 0.00 in 0 W/m2
22:04 42.6 °F 38.4 °F 30.06 in WNW 5.0 mph 11.0 mph 85 % 0.00 in 0 W/m2
22:09 42.4 °F 38.2 °F 30.05 in WNW 5.0 mph 9.0 mph 85 % 0.00 in 0 W/m2
22:14 42.3 °F 38.4 °F 30.06 in WNW 5.0 mph 10.0 mph 86 % 0.00 in 0 W/m2
22:19 42.1 °F 38.2 °F 30.05 in WNW 5.0 mph 11.0 mph 86 % 0.00 in 0 W/m2
22:25 41.9 °F 38.0 °F 30.05 in WNW 5.0 mph 11.0 mph 86 % 0.00 in 0 W/m2
22:30 41.7 °F 37.8 °F 30.06 in WNW 4.0 mph 9.0 mph 86 % 0.00 in 0 W/m2
22:35 41.5 °F 37.7 °F 30.06 in WNW 3.0 mph 6.0 mph 86 % 0.00 in 0 W/m2
22:40 41.4 °F 37.5 °F 30.05 in WNW 1.0 mph 5.0 mph 86 % 0.00 in 0 W/m2
22:45 41.2 °F 37.3 °F 30.05 in Calm   4.0 mph 86 % 0.00 in 0 W/m2
22:50 40.8 °F 37.3 °F 30.06 in Calm   4.0 mph 87 % 0.00 in 0 W/m2
22:55 40.6 °F 37.1 °F 30.06 in Calm   1.0 mph 87 % 0.00 in 0 W/m2
23:00 40.3 °F 36.7 °F 30.06 in Calm   1.0 mph 87 % 0.00 in 0 W/m2
23:05 39.9 °F 36.7 °F 30.06 in Calm     88 % 0.00 in 0 W/m2
23:10 39.7 °F 36.5 °F 30.06 in WNW 1.0 mph 5.0 mph 88 % 0.00 in 0 W/m2
23:15 39.9 °F 36.9 °F 30.06 in West 2.0 mph 6.0 mph 89 % 0.00 in 0 W/m2
23:20 39.9 °F 36.9 °F 30.06 in West 3.0 mph 12.0 mph 89 % 0.00 in 0 W/m2
23:25 39.9 °F 36.9 °F 30.06 in West 6.0 mph 16.0 mph 89 % 0.00 in 0 W/m2
23:30 40.3 °F 36.7 °F 30.06 in West 8.0 mph 16.0 mph 87 % 0.00 in 0 W/m2
23:35 40.6 °F 36.8 °F 30.06 in West 8.0 mph 16.0 mph 86 % 0.00 in 0 W/m2
23:40 40.6 °F 36.5 °F 30.06 in West 9.0 mph 16.0 mph 85 % 0.00 in 0 W/m2
23:45 40.6 °F 36.2 °F 30.06 in West 8.0 mph 14.0 mph 84 % 0.00 in 0 W/m2
23:50 40.6 °F 35.9 °F 30.06 in West 8.0 mph 15.0 mph 83 % 0.00 in 0 W/m2
23:55 40.6 °F 35.6 °F 30.06 in West 8.0 mph 15.0 mph 82 % 0.00 in 0 W/m2
Delerius-Weather
Compliments of Weather Underground - 2.25 mb

Data updates at regular intervals.